Hlavní strana
METAR-TAF:

METAR-TAF

Letiště :

Alton / St. Louis, Illinois, Spojené státy americké

zeměpisná šířka: 38-54N, zeměpisná délka: 090-03W, výška: 166 m

Aktuální stav počasí

Zpráva byla vytvořena před 42 minutami, v 11:50 UTC
Jihojihozápadní vítr 5 kt
Teplota 4°C
Vlhkost vzduchu 93%
Tlak 1014 hPa
Viditelnost: 16.1 km
Jasno

METAR: KALN 191150Z 21005KT 10SM CLR 04/03 A2995

Čas: 07:32 (12:32 UTC)


TAF: chybějící

Stav a předpovědi počasí z více než 4 000 letišť (zprávy METAR a TAF).

Červené a žluté tečky na mapě představují dostupné meteorologické stanice.

Když kurzor umístíte na tečku, zobrazí se název stanice.

Pak kliknutím zobrazíte stav a předpověď počasí.

Chcete-li změnit mapu, kliknutím na zelené tlačítko se znaménkem +mapu přiblížíte, kliknutím na zelené tlačítko se znaménkem – mapu oddálíte a kliknutím na zelené šipky přejdete na sousední mapy.


METAR-TAF: